This is the latest recevied weather packets stored in our database for station/object N7UV-WX. If no packets are shown the sender has not sent any weather packets the latest 10 day(s).
| Time | Temp. | Humidity | Pressure | Rain* | Wind** | Luminosity | Snow |
|---|---|---|---|---|---|---|---|
| 1777980320 | 18.33° C | 56% | 1008.6 hPa | 0 mm | - | 0 W/m² | - |
| 1777976136 | 18.89° C | 51% | 1009.1 hPa | 0 mm | - | 0 W/m² | - |
| 1777969555 | 20° C | 40% | 1009.9 hPa | 0 mm | - | 0 W/m² | - |
| 1777966560 | 20.56° C | 38% | 1009.9 hPa | 0 mm | - | 0 W/m² | - |
| 1777964119 | 21.11° C | 42% | 1010 hPa | 0 mm | - | 0 W/m² | - |
| 1777962934 | 21.11° C | 42% | 1009.6 hPa | 0 mm | - | 0 W/m² | - |
| 1777961719 | 21.11° C | 42% | 1009.5 hPa | 0 mm | - | 0 W/m² | - |
| 1777957519 | 21.67° C | 40% | 1010.1 hPa | 0 mm | - | 0 W/m² | - |
| 1777956919 | 21.67° C | 39% | 1010.1 hPa | 0 mm | - | 0 W/m² | - |
| 1777956319 | 21.67° C | 39% | 1010 hPa | 0 mm | - | 0 W/m² | - |
| 1777955119 | 22.22° C | 40% | 1009.9 hPa | 0 mm | - | 0 W/m² | - |
| 1777952719 | 22.22° C | 41% | 1009.7 hPa | 0 mm | - | 0 W/m² | - |
| 1777952135 | 22.22° C | 42% | 1009.3 hPa | 0 mm | - | 0 W/m² | - |
| 1777949736 | 22.22° C | 41% | 1008.8 hPa | 0 mm | - | 0 W/m² | - |
| 1777948519 | 22.22° C | 41% | 1009 hPa | 0 mm | - | 0 W/m² | - |
| 1777946120 | 22.78° C | 38% | 1008.7 hPa | 0 mm | - | 11 W/m² | - |
| 1777937134 | 23.33° C | 38% | 1009.1 hPa | 0 mm | - | 334 W/m² | - |
| 1777931734 | 22.78° C | 39% | 1009.8 hPa | 0 mm | - | 471 W/m² | - |
| 1777928135 | 22.22° C | 40% | 1010.5 hPa | 0 mm | - | 348 W/m² | - |
| 1777920934 | 21.67° C | 45% | 1010.5 hPa | 0 mm | - | 392 W/m² | - |
| 1777917919 | 21.11° C | 47% | 1011.2 hPa | 0 mm | - | 383 W/m² | - |
| 1777917319 | 21.11° C | 49% | 1011.3 hPa | 0 mm | - | 418 W/m² | - |
| 1777916719 | 20.56° C | 50% | 1010.9 hPa | 0 mm | - | 483 W/m² | - |
| 1777915519 | 20.56° C | 51% | 1010.1 hPa | 0 mm | - | 278 W/m² | - |
| 1777914919 | 20° C | 52% | 1010.4 hPa | 0 mm | - | 246 W/m² | - |
* Rain latest hour (hover to see other rain measurements)
** Current wind speed in m/s (hover to see current wind gust speed)